Time;durP1;ratioP1;P1;durP2;ratioP2;P2;SDS_P1;SDS_P2;PMS_P1;PMS_P2;Temp;Humidity;BMP_temperature;BMP_pressure;BME280_temperature;BME280_humidity;BME280_pressure;Samples;Min_cycle;Max_cycle;Signal;HPM_P1;HPM_P2
2022/09/19 00:01:33;;;;;;;2.88;1.02;;;;;;;;;;5028330;28;20419;-57
2022/09/19 00:04:05;;;;;;;1.05;0.93;;;;;;;;;;5029857;28;20411;-57
2022/09/19 00:06:35;;;;;;;1.17;0.80;;;;;;;;;;5029760;28;20529;-57
2022/09/19 00:09:03;;;;;;;2.05;0.93;;;;;;;;;;5029456;28;20041;-57
2022/09/19 00:11:29;;;;;;;1.80;0.80;;;;;;;;;;5031760;28;20056;-56
2022/09/19 00:13:57;;;;;;;2.47;0.82;;;;;;;;;;5030356;28;20029;-57
2022/09/19 00:16:36;;;;;;;0.98;0.85;;;;;;;;;;5029684;28;20109;-57
2022/09/19 00:19:04;;;;;;;0.85;0.85;;;;;;;;;;5027845;28;20140;-57
2022/09/19 00:21:32;;;;;;;0.95;0.70;;;;;;;;;;5024862;28;20561;-57
2022/09/19 00:26:43;;;;;;;0.70;0.70;;;;;;;;;;5028864;28;20091;-57
2022/09/19 00:29:09;;;;;;;1.80;0.80;;;;;;;;;;5029972;28;20044;-57
2022/09/19 00:31:36;;;;;;;0.70;0.70;;;;;;;;;;5029255;28;20175;-56
2022/09/19 00:34:06;;;;;;;0.93;0.60;;;;;;;;;;5029791;28;20055;-56
2022/09/19 00:36:35;;;;;;;0.90;0.70;;;;;;;;;;5029047;28;20414;-56
2022/09/19 00:39:01;;;;;;;0.65;0.65;;;;;;;;;;5035668;28;20403;-56
2022/09/19 00:41:27;;;;;;;0.80;0.68;;;;;;;;;;5028563;28;20040;-56
2022/09/19 00:44:02;;;;;;;1.23;0.90;;;;;;;;;;5028950;28;20029;-56
2022/09/19 00:46:31;;;;;;;1.00;0.90;;;;;;;;;;5028943;28;20059;-56
2022/09/19 00:49:05;;;;;;;0.80;0.80;;;;;;;;;;5028496;28;20036;-56
2022/09/19 00:51:45;;;;;;;1.35;0.90;;;;;;;;;;5028261;28;20056;-56
2022/09/19 00:54:14;;;;;;;1.13;0.93;;;;;;;;;;5027054;28;20041;-56
2022/09/19 00:56:42;;;;;;;0.95;0.90;;;;;;;;;;5027375;28;20033;-58
2022/09/19 00:59:09;;;;;;;0.65;0.57;;;;;;;;;;5028909;28;20476;-56
2022/09/19 01:01:34;;;;;;;0.50;0.50;;;;;;;;;;5028329;28;20402;-56
2022/09/19 01:04:01;;;;;;;0.50;0.50;;;;;;;;;;5028906;28;20104;-56
2022/09/19 01:07:03;;;;;;;0.50;0.50;;;;;;;;;;5029767;28;20120;-55
2022/09/19 01:09:40;;;;;;;0.40;0.40;;;;;;;;;;5025439;28;20026;-56
2022/09/19 01:12:51;;;;;;;0.50;0.50;;;;;;;;;;5035011;28;20122;-56
2022/09/19 01:15:39;;;;;;;0.60;0.60;;;;;;;;;;4990384;28;20071;-56
2022/09/19 01:18:07;;;;;;;0.70;0.70;;;;;;;;;;5028680;28;20475;-55
2022/09/19 01:20:51;;;;;;;0.38;0.38;;;;;;;;;;5029440;28;20518;-56
2022/09/19 01:23:19;;;;;;;0.50;0.50;;;;;;;;;;5038422;28;20384;-55
2022/09/19 01:25:53;;;;;;;1.10;0.40;;;;;;;;;;5028095;28;20029;-55
2022/09/19 01:28:27;;;;;;;0.30;0.30;;;;;;;;;;5029703;28;20113;-56
2022/09/19 01:31:20;;;;;;;1.75;0.40;;;;;;;;;;5030302;28;20040;-57
2022/09/19 01:34:05;;;;;;;0.60;0.60;;;;;;;;;;5033787;28;20103;-55
2022/09/19 01:36:36;;;;;;;2.20;0.60;;;;;;;;;;5028783;28;20032;-56
2022/09/19 01:39:04;;;;;;;0.50;0.50;;;;;;;;;;5034375;28;20029;-56
2022/09/19 01:41:30;;;;;;;0.50;0.40;;;;;;;;;;5031835;28;20044;-56
2022/09/19 01:44:04;;;;;;;0.40;0.40;;;;;;;;;;5031701;28;20542;-57
2022/09/19 01:46:52;;;;;;;0.40;0.40;;;;;;;;;;5031054;28;20030;-56
2022/09/19 01:49:26;;;;;;;0.98;0.40;;;;;;;;;;5036265;28;20029;-57
2022/09/19 01:52:07;;;;;;;1.38;0.32;;;;;;;;;;5031528;28;20474;-56
2022/09/19 01:54:45;;;;;;;0.68;0.45;;;;;;;;;;5031816;28;20032;-56
2022/09/19 01:57:21;;;;;;;0.77;0.43;;;;;;;;;;5030815;28;20029;-57
2022/09/19 01:59:55;;;;;;;0.60;0.60;;;;;;;;;;5033569;28;20040;-57
2022/09/19 02:02:54;;;;;;;0.73;0.40;;;;;;;;;;5030692;28;20029;-56
2022/09/19 02:05:50;;;;;;;1.20;0.32;;;;;;;;;;5031839;28;20031;-57
2022/09/19 02:08:23;;;;;;;0.98;0.47;;;;;;;;;;5029069;28;20299;-57
2022/09/19 02:10:56;;;;;;;1.08;0.82;;;;;;;;;;5029121;28;20646;-56
2022/09/19 02:13:26;;;;;;;1.38;0.90;;;;;;;;;;5031038;28;20037;-57
2022/09/19 02:15:58;;;;;;;1.23;1.13;;;;;;;;;;5031426;28;20594;-57
2022/09/19 02:18:36;;;;;;;0.90;0.80;;;;;;;;;;5030795;28;20124;-57
2022/09/19 02:21:11;;;;;;;1.13;0.90;;;;;;;;;;5028470;28;20561;-56
2022/09/19 02:23:46;;;;;;;1.58;0.80;;;;;;;;;;5029573;28;20033;-56
2022/09/19 02:26:16;;;;;;;1.10;0.98;;;;;;;;;;5032275;28;20021;-56
2022/09/19 02:28:44;;;;;;;1.20;0.95;;;;;;;;;;5031294;28;20069;-57
2022/09/19 02:31:11;;;;;;;0.85;0.80;;;;;;;;;;5031559;28;20112;-56
2022/09/19 02:33:39;;;;;;;2.30;1.13;;;;;;;;;;5032260;28;20036;-56
2022/09/19 02:36:16;;;;;;;1.10;0.80;;;;;;;;;;5031477;28;20033;-57
2022/09/19 02:38:54;;;;;;;0.63;0.63;;;;;;;;;;5031243;28;20079;-57
2022/09/19 02:41:36;;;;;;;1.85;0.95;;;;;;;;;;5030479;28;20478;-56
2022/09/19 02:44:19;;;;;;;0.70;0.70;;;;;;;;;;5028267;28;20044;-57
2022/09/19 02:47:02;;;;;;;1.45;1.10;;;;;;;;;;5029173;28;20446;-57
2022/09/19 02:49:36;;;;;;;0.82;0.70;;;;;;;;;;5031289;28;20037;-56
2022/09/19 02:52:07;;;;;;;2.28;0.95;;;;;;;;;;5030657;28;20021;-57
2022/09/19 02:54:36;;;;;;;1.65;1.00;;;;;;;;;;5031066;28;20029;-56
2022/09/19 02:57:06;;;;;;;2.85;1.08;;;;;;;;;;5032043;28;20133;-57
2022/09/19 02:59:35;;;;;;;1.38;0.73;;;;;;;;;;5031949;28;20033;-57
2022/09/19 03:02:02;;;;;;;;;;;;;;;;;;5031878;28;20025;-57
2022/09/19 03:04:33;;;;;;;2.13;0.90;;;;;;;;;;5031144;28;20330;-56
2022/09/19 03:07:34;;;;;;;3.72;0.82;;;;;;;;;;5031034;28;20048;-57
2022/09/19 03:10:05;;;;;;;1.00;0.82;;;;;;;;;;5031615;28;20026;-56
2022/09/19 03:12:47;;;;;;;2.35;0.70;;;;;;;;;;5031026;28;20025;-57
2022/09/19 03:15:13;;;;;;;1.08;0.80;;;;;;;;;;5030119;28;20044;-56
2022/09/19 03:17:43;;;;;;;1.50;0.98;;;;;;;;;;5031017;28;20026;-56
2022/09/19 03:20:11;;;;;;;3.33;1.13;;;;;;;;;;5030701;28;20030;-56
2022/09/19 03:22:40;;;;;;;2.70;1.10;;;;;;;;;;5029698;28;20033;-57
2022/09/19 03:25:10;;;;;;;5.05;1.00;;;;;;;;;;5026556;28;20053;-57
2022/09/19 03:27:36;;;;;;;;;;;;;;;;;;5030962;28;20030;-57
2022/09/19 03:30:05;;;;;;;3.60;0.90;;;;;;;;;;5030539;28;20382;-56
2022/09/19 03:32:31;;;;;;;2.30;0.82;;;;;;;;;;5028542;28;20032;-57
2022/09/19 03:34:56;;;;;;;2.30;0.75;;;;;;;;;;5029637;28;20032;-57
2022/09/19 03:37:23;;;;;;;4.35;1.00;;;;;;;;;;5030955;28;20041;-57
2022/09/19 03:39:48;;;;;;;6.70;1.33;;;;;;;;;;5030518;28;20025;-57
2022/09/19 03:42:14;;;;;;;3.22;1.17;;;;;;;;;;5029795;28;20030;-56
2022/09/19 03:44:40;;;;;;;5.22;1.20;;;;;;;;;;5029542;28;20032;-56
2022/09/19 03:47:05;;;;;;;2.83;1.60;;;;;;;;;;5030223;28;20025;-57
2022/09/19 03:49:31;;;;;;;5.45;1.20;;;;;;;;;;5029049;28;20104;-57
2022/09/19 03:51:59;;;;;;;5.00;1.13;;;;;;;;;;5029732;28;20059;-57
2022/09/19 03:54:25;;;;;;;2.97;1.20;;;;;;;;;;5029667;28;20033;-56
2022/09/19 03:56:50;;;;;;;2.15;1.40;;;;;;;;;;5029921;28;20033;-56
2022/09/19 03:59:15;;;;;;;4.05;1.35;;;;;;;;;;5031368;28;20041;-57
2022/09/19 04:01:41;;;;;;;2.08;1.35;;;;;;;;;;5031700;28;20037;-57
2022/09/19 04:04:06;;;;;;;2.85;1.50;;;;;;;;;;5029735;28;20032;-58
2022/09/19 04:06:32;;;;;;;4.85;1.33;;;;;;;;;;5028785;28;20033;-57
2022/09/19 04:09:00;;;;;;;2.08;1.52;;;;;;;;;;5029796;28;20384;-56
2022/09/19 04:11:27;;;;;;;2.72;1.17;;;;;;;;;;5033108;28;20029;-56
2022/09/19 04:13:52;;;;;;;3.15;1.35;;;;;;;;;;5029624;28;20047;-55
2022/09/19 04:16:18;;;;;;;2.70;1.33;;;;;;;;;;5029823;28;20033;-56
2022/09/19 04:18:47;;;;;;;2.15;1.10;;;;;;;;;;5029853;28;20033;-56
2022/09/19 04:21:16;;;;;;;4.53;1.27;;;;;;;;;;5028097;28;20423;-56
2022/09/19 04:23:41;;;;;;;4.97;1.10;;;;;;;;;;5028012;28;20025;-56
2022/09/19 04:26:06;;;;;;;3.72;1.15;;;;;;;;;;5028879;28;20024;-55
2022/09/19 04:28:32;;;;;;;2.83;1.50;;;;;;;;;;5030934;28;20057;-56
2022/09/19 04:30:58;;;;;;;3.80;1.83;;;;;;;;;;5029638;28;20048;-56
2022/09/19 04:33:24;;;;;;;5.78;1.30;;;;;;;;;;5030480;28;20021;-57
2022/09/19 04:35:50;;;;;;;1.92;1.10;;;;;;;;;;5029217;28;20028;-56
2022/09/19 04:38:17;;;;;;;3.90;1.48;;;;;;;;;;5029538;28;20025;-56
2022/09/19 04:40:46;;;;;;;5.03;1.50;;;;;;;;;;5024764;28;20025;-56
2022/09/19 04:43:14;;;;;;;6.00;1.58;;;;;;;;;;5029277;28;20025;-56
2022/09/19 04:45:42;;;;;;;3.50;1.70;;;;;;;;;;5028940;28;20312;-56
2022/09/19 04:48:08;;;;;;;1.50;1.27;;;;;;;;;;5027441;28;20437;-56
2022/09/19 04:50:34;;;;;;;3.22;1.40;;;;;;;;;;5029879;28;20033;-57
2022/09/19 04:53:00;;;;;;;2.30;1.70;;;;;;;;;;5028834;28;20056;-56
2022/09/19 04:55:27;;;;;;;5.40;1.80;;;;;;;;;;5028888;28;20107;-57
2022/09/19 04:57:54;;;;;;;4.60;1.80;;;;;;;;;;5030743;28;20017;-56
2022/09/19 05:00:36;;;;;;;3.55;1.48;;;;;;;;;;5024505;28;20070;-60
2022/09/19 05:03:13;;;;;;;6.80;1.88;;;;;;;;;;5029995;28;20025;-60
2022/09/19 05:05:50;;;;;;;3.78;1.67;;;;;;;;;;5028383;28;20112;-60
2022/09/19 05:08:18;;;;;;;7.95;2.40;;;;;;;;;;5028011;28;20684;-60
2022/09/19 05:10:45;;;;;;;5.93;1.83;;;;;;;;;;5029078;28;20048;-60
2022/09/19 05:13:11;;;;;;;3.20;1.70;;;;;;;;;;5024489;28;20119;-54
2022/09/19 05:15:38;;;;;;;5.65;2.05;;;;;;;;;;5029858;28;20188;-55
2022/09/19 05:18:04;;;;;;;4.63;1.67;;;;;;;;;;5029828;28;20029;-56
2022/09/19 05:20:29;;;;;;;4.20;1.65;;;;;;;;;;5027510;28;20041;-60
2022/09/19 05:22:58;;;;;;;7.82;1.30;;;;;;;;;;5030078;28;20544;-60
2022/09/19 05:25:28;;;;;;;2.95;1.60;;;;;;;;;;5028138;28;20033;-61
2022/09/19 05:27:56;;;;;;;;;;;;;;;;;;5028677;28;20037;-60
2022/09/19 05:30:26;;;;;;;5.10;2.00;;;;;;;;;;5029580;28;20330;-60
2022/09/19 05:32:51;;;;;;;;;;;;;;;;;;5031180;28;20432;-60
2022/09/19 05:35:17;;;;;;;6.10;2.08;;;;;;;;;;5028029;28;19956;-60
2022/09/19 05:37:45;;;;;;;7.93;1.70;;;;;;;;;;5025936;28;20031;-60
2022/09/19 05:40:10;;;;;;;8.43;2.10;;;;;;;;;;5029604;28;20155;-60
2022/09/19 05:42:40;;;;;;;6.30;1.50;;;;;;;;;;5027459;28;20475;-60
2022/09/19 05:45:06;;;;;;;;;;;;;;;;;;5029328;28;20108;-60
2022/09/19 05:47:31;;;;;;;4.90;1.60;;;;;;;;;;5031509;28;20005;-60
2022/09/19 05:49:57;;;;;;;3.75;1.95;;;;;;;;;;5030252;28;20019;-60
2022/09/19 05:55:07;;;;;;;3.78;1.80;;;;;;;;;;5025715;28;20501;-60
2022/09/19 05:57:34;;;;;;;9.57;1.92;;;;;;;;;;5033696;28;20074;-60
2022/09/19 05:59:59;;;;;;;2.97;1.50;;;;;;;;;;5018291;28;20049;-60
2022/09/19 06:02:25;;;;;;;1.80;1.30;;;;;;;;;;5027310;28;20057;-60
2022/09/19 06:04:50;;;;;;;3.45;1.50;;;;;;;;;;5030010;28;20048;-60
2022/09/19 06:07:15;;;;;;;5.93;1.77;;;;;;;;;;5031204;28;20030;-60
2022/09/19 06:09:42;;;;;;;6.13;1.45;;;;;;;;;;5023459;28;20033;-60
2022/09/19 06:12:07;;;;;;;10.13;3.13;;;;;;;;;;5028503;28;20257;-60
2022/09/19 06:14:35;;;;;;;9.43;2.20;;;;;;;;;;5028001;28;20037;-60
2022/09/19 06:17:00;;;;;;;9.00;1.95;;;;;;;;;;5030647;28;20414;-60
2022/09/19 06:19:26;;;;;;;10.93;4.55;;;;;;;;;;5033554;28;20021;-60
2022/09/19 06:21:51;;;;;;;7.75;2.28;;;;;;;;;;5031852;28;20036;-60
2022/09/19 06:24:16;;;;;;;5.30;1.58;;;;;;;;;;5033853;28;20029;-60
2022/09/19 06:26:42;;;;;;;5.50;1.85;;;;;;;;;;5030365;28;20059;-60
2022/09/19 06:29:07;;;;;;;8.73;2.13;;;;;;;;;;5031874;28;20032;-60
2022/09/19 06:31:34;;;;;;;8.45;2.10;;;;;;;;;;5041335;28;20036;-60
2022/09/19 06:34:00;;;;;;;7.20;1.75;;;;;;;;;;5027259;28;20049;-60
2022/09/19 06:36:25;;;;;;;5.97;2.42;;;;;;;;;;5030236;28;20060;-60
2022/09/19 06:38:51;;;;;;;5.97;2.05;;;;;;;;;;5030300;28;20020;-60
2022/09/19 06:41:16;;;;;;;7.88;1.80;;;;;;;;;;5033703;28;20033;-60
2022/09/19 06:43:42;;;;;;;4.80;1.63;;;;;;;;;;5029933;28;20478;-60
2022/09/19 06:46:09;;;;;;;3.90;1.75;;;;;;;;;;5040861;28;20662;-60
2022/09/19 06:48:34;;;;;;;2.13;1.60;;;;;;;;;;5032208;28;20026;-60
2022/09/19 06:51:00;;;;;;;8.02;2.22;;;;;;;;;;5031658;28;20030;-60
2022/09/19 06:53:25;;;;;;;11.68;2.35;;;;;;;;;;5030852;28;20407;-60
2022/09/19 06:55:51;;;;;;;11.60;1.90;;;;;;;;;;5030891;28;20594;-60
2022/09/19 06:58:17;;;;;;;5.25;1.90;;;;;;;;;;5032117;28;20029;-61
2022/09/19 07:00:43;;;;;;;5.05;2.00;;;;;;;;;;5028304;28;20029;-60
2022/09/19 07:03:12;;;;;;;6.97;2.08;;;;;;;;;;5028850;28;20028;-60
2022/09/19 07:05:42;;;;;;;10.57;2.33;;;;;;;;;;5031006;28;20038;-60
2022/09/19 07:08:07;;;;;;;7.00;1.90;;;;;;;;;;5031418;28;20369;-61
2022/09/19 07:10:35;;;;;;;7.45;3.05;;;;;;;;;;5031228;28;20029;-60
2022/09/19 07:13:01;;;;;;;3.65;1.80;;;;;;;;;;5025661;28;20103;-60
2022/09/19 07:15:28;;;;;;;6.50;2.63;;;;;;;;;;5031147;28;20071;-60
2022/09/19 07:17:56;;;;;;;11.10;2.58;;;;;;;;;;5029254;28;20493;-61
2022/09/19 07:20:26;;;;;;;7.20;2.58;;;;;;;;;;5028140;28;20080;-60
2022/09/19 07:22:58;;;;;;;;;;;;;;;;;;5029374;28;20451;-61
2022/09/19 07:25:24;;;;;;;5.90;1.98;;;;;;;;;;5027841;28;19970;-60
2022/09/19 07:27:57;;;;;;;5.80;1.50;;;;;;;;;;5028706;28;20029;-60
2022/09/19 07:30:23;;;;;;;6.22;1.83;;;;;;;;;;5035361;28;20036;-60
2022/09/19 07:32:48;;;;;;;9.93;1.90;;;;;;;;;;5033810;28;20021;-60
2022/09/19 07:35:14;;;;;;;8.23;2.00;;;;;;;;;;5032840;28;20029;-60
2022/09/19 07:37:39;;;;;;;5.10;2.08;;;;;;;;;;5031958;28;20531;-60
2022/09/19 07:40:05;;;;;;;5.07;1.83;;;;;;;;;;5035662;28;20021;-60
2022/09/19 07:42:31;;;;;;;5.05;2.00;;;;;;;;;;5026719;28;20033;-60
2022/09/19 07:44:56;;;;;;;7.18;2.10;;;;;;;;;;5029167;28;20047;-60
2022/09/19 07:47:28;;;;;;;3.50;2.13;;;;;;;;;;5030863;28;20029;-60
2022/09/19 07:49:56;;;;;;;10.60;2.22;;;;;;;;;;5029773;28;20822;-61
2022/09/19 07:52:22;;;;;;;6.38;2.45;;;;;;;;;;5030568;28;20021;-60
2022/09/19 07:54:49;;;;;;;5.07;2.25;;;;;;;;;;5033928;28;20113;-60
2022/09/19 07:57:14;;;;;;;7.13;2.50;;;;;;;;;;5029296;28;20570;-60
2022/09/19 07:59:40;;;;;;;6.68;2.28;;;;;;;;;;5026701;28;20032;-60
2022/09/19 08:02:08;;;;;;;9.95;2.42;;;;;;;;;;5026366;28;20021;-60
2022/09/19 08:04:33;;;;;;;10.10;2.80;;;;;;;;;;5032116;28;20029;-60
2022/09/19 08:07:00;;;;;;;7.75;2.30;;;;;;;;;;5029064;28;20026;-60
2022/09/19 08:09:25;;;;;;;6.03;2.63;;;;;;;;;;5030240;28;20045;-60
2022/09/19 08:11:50;;;;;;;10.38;3.15;;;;;;;;;;5028940;28;20106;-60
2022/09/19 08:14:15;;;;;;;7.85;2.05;;;;;;;;;;5030529;28;20021;-60
2022/09/19 08:16:41;;;;;;;9.20;2.92;;;;;;;;;;5029335;28;20056;-60
2022/09/19 08:19:08;;;;;;;5.18;1.92;;;;;;;;;;5029742;28;20044;-60
2022/09/19 08:21:33;;;;;;;5.72;1.50;;;;;;;;;;5027189;28;20538;-60
2022/09/19 08:23:58;;;;;;;5.53;2.10;;;;;;;;;;5034178;28;20064;-60
2022/09/19 08:26:25;;;;;;;7.70;2.30;;;;;;;;;;5027173;28;20032;-60
2022/09/19 08:28:51;;;;;;;12.23;2.97;;;;;;;;;;5029026;28;20052;-60
2022/09/19 08:31:16;;;;;;;4.88;1.92;;;;;;;;;;5029547;28;20028;-60
2022/09/19 08:33:42;;;;;;;8.45;2.42;;;;;;;;;;5028421;28;20037;-60
2022/09/19 08:36:09;;;;;;;5.43;1.98;;;;;;;;;;5028167;28;20025;-60
2022/09/19 08:38:34;;;;;;;4.57;2.13;;;;;;;;;;5028088;28;20112;-60
2022/09/19 08:41:04;;;;;;;6.13;2.33;;;;;;;;;;5027785;28;20305;-60
2022/09/19 08:44:11;;;;;;;11.40;2.78;;;;;;;;;;5028688;28;20052;-60
2022/09/19 08:46:52;;;;;;;7.85;2.85;;;;;;;;;;5030252;28;20032;-60
2022/09/19 08:49:25;;;;;;;6.80;2.05;;;;;;;;;;5029490;28;20037;-60
2022/09/19 08:52:08;;;;;;;6.07;2.22;;;;;;;;;;5027763;28;20041;-60
2022/09/19 08:54:43;;;;;;;11.02;2.08;;;;;;;;;;5030340;28;20082;-60
2022/09/19 08:57:19;;;;;;;8.57;2.30;;;;;;;;;;5024795;28;20026;-60
2022/09/19 08:59:48;;;;;;;8.70;2.47;;;;;;;;;;5027096;28;20079;-60
2022/09/19 09:02:13;;;;;;;6.78;3.00;;;;;;;;;;5029909;28;20048;-60
2022/09/19 09:04:40;;;;;;;12.35;3.00;;;;;;;;;;5030707;28;20026;-60
2022/09/19 09:07:30;;;;;;;7.88;2.25;;;;;;;;;;5032178;28;20024;-58
2022/09/19 09:10:08;;;;;;;10.35;2.95;;;;;;;;;;5028585;28;20026;-60
2022/09/19 09:12:49;;;;;;;10.15;3.05;;;;;;;;;;5028293;28;20329;-60
2022/09/19 09:15:20;;;;;;;4.90;3.05;;;;;;;;;;5026943;28;20096;-60
2022/09/19 09:18:20;;;;;;;14.02;3.30;;;;;;;;;;5024044;28;20172;-60
2022/09/19 09:20:58;;;;;;;8.70;2.75;;;;;;;;;;5025904;28;20289;-60
2022/09/19 09:23:35;;;;;;;13.23;2.95;;;;;;;;;;5023023;28;20495;-60
2022/09/19 09:26:08;;;;;;;14.80;2.90;;;;;;;;;;5026221;28;20120;-60
2022/09/19 09:28:49;;;;;;;3.72;2.20;;;;;;;;;;5027434;28;20030;-60
2022/09/19 09:31:40;;;;;;;7.13;2.58;;;;;;;;;;5026205;28;20104;-60
2022/09/19 09:34:28;;;;;;;10.77;2.50;;;;;;;;;;5032483;28;20029;-60
2022/09/19 09:37:06;;;;;;;5.32;2.20;;;;;;;;;;5027521;28;20163;-60
2022/09/19 09:39:49;;;;;;;6.55;3.00;;;;;;;;;;5028266;28;20503;-60
2022/09/19 09:42:21;;;;;;;11.35;3.20;;;;;;;;;;5023515;28;20509;-60
2022/09/19 09:45:34;;;;;;;10.00;2.65;;;;;;;;;;5027108;28;20092;-60
2022/09/19 09:48:21;;;;;;;8.65;2.75;;;;;;;;;;4999381;28;20061;-60
2022/09/19 09:51:02;;;;;;;5.68;2.83;;;;;;;;;;5028337;28;20048;-60
2022/09/19 09:53:52;;;;;;;11.10;2.80;;;;;;;;;;5030659;28;20029;-60
2022/09/19 09:56:31;;;;;;;8.32;2.28;;;;;;;;;;5030223;28;20091;-60
2022/09/19 09:59:08;;;;;;;11.93;2.90;;;;;;;;;;5031379;28;20025;-60
2022/09/19 10:04:53;;;;;;;10.20;3.53;;;;;;;;;;5034062;28;20067;-60
2022/09/19 10:07:37;;;;;;;10.57;2.90;;;;;;;;;;5036550;28;20103;-60
2022/09/19 10:10:11;;;;;;;7.78;2.55;;;;;;;;;;5027906;28;20506;-61
2022/09/19 10:12:41;;;;;;;8.82;2.65;;;;;;;;;;5028911;28;20294;-60
2022/09/19 10:15:16;;;;;;;9.65;2.55;;;;;;;;;;5033268;28;20116;-60
2022/09/19 10:17:47;;;;;;;8.02;2.60;;;;;;;;;;5036416;28;20044;-60
2022/09/19 10:20:22;;;;;;;8.45;3.13;;;;;;;;;;5034438;28;20426;-60
2022/09/19 10:22:48;;;;;;;5.82;2.30;;;;;;;;;;5032626;28;20059;-60
2022/09/19 10:25:15;;;;;;;7.47;2.22;;;;;;;;;;5039645;28;20032;-60
2022/09/19 10:27:42;;;;;;;8.05;2.40;;;;;;;;;;5035736;28;20429;-60
2022/09/19 10:30:11;;;;;;;6.20;2.65;;;;;;;;;;5031657;28;20083;-60
2022/09/19 10:32:39;;;;;;;6.28;2.75;;;;;;;;;;5032085;28;20021;-59
2022/09/19 10:35:26;;;;;;;7.30;2.85;;;;;;;;;;5027360;28;20021;-60
2022/09/19 10:38:13;;;;;;;11.43;2.67;;;;;;;;;;5030070;28;20064;-59
2022/09/19 10:40:57;;;;;;;8.70;2.33;;;;;;;;;;5029639;28;20033;-59
2022/09/19 10:43:30;;;;;;;4.10;2.30;;;;;;;;;;5033877;28;20052;-60
2022/09/19 10:46:07;;;;;;;7.30;2.40;;;;;;;;;;5029946;28;20097;-59
2022/09/19 10:48:39;;;;;;;9.15;2.60;;;;;;;;;;5060518;28;20039;-59
2022/09/19 10:51:08;;;;;;;7.35;2.28;;;;;;;;;;5030678;28;20033;-60
2022/09/19 10:53:36;;;;;;;13.37;2.80;;;;;;;;;;5030407;28;20079;-60
2022/09/19 10:56:22;;;;;;;9.88;2.65;;;;;;;;;;5030157;28;20124;-59
2022/09/19 10:59:00;;;;;;;4.93;2.13;;;;;;;;;;5028330;28;20017;-60
2022/09/19 11:01:26;;;;;;;6.40;2.10;;;;;;;;;;5029758;28;20048;-60
2022/09/19 11:03:58;;;;;;;4.47;2.53;;;;;;;;;;5028628;28;20029;-60
2022/09/19 11:06:24;;;;;;;8.68;2.53;;;;;;;;;;5027152;28;20107;-59
2022/09/19 11:08:51;;;;;;;6.97;2.10;;;;;;;;;;5029877;28;20069;-59
2022/09/19 11:11:37;;;;;;;9.60;3.03;;;;;;;;;;5027010;28;20032;-60
2022/09/19 11:14:11;;;;;;;13.65;4.28;;;;;;;;;;5029918;28;20064;-60
2022/09/19 11:17:04;;;;;;;8.70;2.33;;;;;;;;;;5028901;28;20052;-60
2022/09/19 11:19:57;;;;;;;5.72;1.98;;;;;;;;;;5025714;28;20499;-60
2022/09/19 11:22:26;;;;;;;7.63;2.20;;;;;;;;;;5027916;28;20056;-60
2022/09/19 11:25:10;;;;;;;8.70;3.35;;;;;;;;;;5026610;28;20028;-60
2022/09/19 11:28:21;;;;;;;4.65;2.40;;;;;;;;;;5032211;28;20018;-60
2022/09/19 11:30:53;;;;;;;6.22;2.70;;;;;;;;;;4944299;28;20197;-60
2022/09/19 11:34:09;;;;;;;10.88;3.20;;;;;;;;;;4972271;28;20041;-60
2022/09/19 11:37:21;;;;;;;5.35;2.17;;;;;;;;;;5021497;28;20049;-60
2022/09/19 11:40:02;;;;;;;4.82;1.80;;;;;;;;;;5032196;28;20478;-60
2022/09/19 11:42:47;;;;;;;2.42;1.88;;;;;;;;;;5029782;28;20128;-59
2022/09/19 11:45:18;;;;;;;3.75;1.65;;;;;;;;;;5028213;28;20036;-60
2022/09/19 11:48:02;;;;;;;6.55;2.17;;;;;;;;;;5028777;28;20108;-60
2022/09/19 11:50:39;;;;;;;4.53;2.22;;;;;;;;;;5028299;28;20120;-60
2022/09/19 11:53:23;;;;;;;6.82;2.20;;;;;;;;;;5027549;28;20033;-60
2022/09/19 11:56:10;;;;;;;3.97;2.30;;;;;;;;;;5029358;28;20055;-60
2022/09/19 11:58:46;;;;;;;4.70;1.73;;;;;;;;;;5027653;28;20116;-59
2022/09/19 12:01:15;;;;;;;4.40;1.77;;;;;;;;;;5030141;28;20040;-59
2022/09/19 12:03:56;;;;;;;5.70;2.05;;;;;;;;;;5028102;28;20044;-60
2022/09/19 12:06:49;;;;;;;2.58;1.60;;;;;;;;;;5063357;28;20036;-59
2022/09/19 12:09:32;;;;;;;4.15;2.45;;;;;;;;;;5027163;28;20049;-60
2022/09/19 12:12:04;;;;;;;7.20;3.38;;;;;;;;;;5030820;28;20045;-60
2022/09/19 12:15:00;;;;;;;3.72;2.08;;;;;;;;;;5027918;28;20095;-60
2022/09/19 12:17:35;;;;;;;6.50;2.40;;;;;;;;;;5025310;28;20171;-59
2022/09/19 12:20:13;;;;;;;6.10;2.47;;;;;;;;;;5038087;28;20020;-60
2022/09/19 12:22:47;;;;;;;5.35;2.75;;;;;;;;;;5029541;28;20072;-60
2022/09/19 12:25:20;;;;;;;4.15;2.08;;;;;;;;;;5025436;28;20780;-59
2022/09/19 12:28:06;;;;;;;5.05;2.00;;;;;;;;;;5028171;28;20116;-59
2022/09/19 12:30:40;;;;;;;6.80;1.70;;;;;;;;;;5028620;28;20037;-59
2022/09/19 12:33:31;;;;;;;5.55;2.13;;;;;;;;;;5021905;28;20086;-60
2022/09/19 12:36:14;;;;;;;5.25;2.25;;;;;;;;;;5028767;28;20031;-60
2022/09/19 12:39:05;;;;;;;5.45;1.90;;;;;;;;;;5026664;28;20930;-60
2022/09/19 12:41:49;;;;;;;5.93;1.85;;;;;;;;;;5031172;28;20837;-60
2022/09/19 12:44:34;;;;;;;3.05;1.60;;;;;;;;;;5029257;28;20032;-60
2022/09/19 12:47:37;;;;;;;7.53;2.40;;;;;;;;;;5026951;28;20044;-59
2022/09/19 12:50:15;;;;;;;5.22;1.63;;;;;;;;;;5032107;28;20117;-59
2022/09/19 12:53:02;;;;;;;4.88;1.67;;;;;;;;;;5026680;28;20103;-59
2022/09/19 12:55:39;;;;;;;3.33;1.67;;;;;;;;;;5029021;28;20040;-59
2022/09/19 12:58:15;;;;;;;4.20;2.05;;;;;;;;;;5029988;28;20029;-59
2022/09/19 13:00:42;;;;;;;4.40;1.67;;;;;;;;;;5031391;28;20045;-59
2022/09/19 13:03:22;;;;;;;5.22;1.90;;;;;;;;;;5030912;28;20509;-59
2022/09/19 13:05:56;;;;;;;4.50;1.85;;;;;;;;;;5027527;28;20064;-60
2022/09/19 13:08:48;;;;;;;4.63;1.98;;;;;;;;;;5032093;28;20047;-59
2022/09/19 13:11:30;;;;;;;9.25;2.47;;;;;;;;;;4996833;28;20036;-59
2022/09/19 13:14:01;;;;;;;8.70;1.98;;;;;;;;;;5027945;28;20112;-59
2022/09/19 13:16:30;;;;;;;6.60;2.40;;;;;;;;;;5031983;28;20386;-60
2022/09/19 13:24:38;;;;;;;6.03;1.95;;;;;;;;;;5024966;28;20036;-60
2022/09/19 13:27:04;;;;;;;2.33;1.65;;;;;;;;;;5029074;28;20057;-60
2022/09/19 13:29:30;;;;;;;3.13;1.83;;;;;;;;;;5035775;28;20061;-60
2022/09/19 13:32:00;;;;;;;2.75;1.70;;;;;;;;;;5031044;28;20190;-60
2022/09/19 13:34:32;;;;;;;3.22;2.00;;;;;;;;;;5031675;28;20503;-60
2022/09/19 13:37:04;;;;;;;6.13;2.10;;;;;;;;;;5034659;28;20026;-61
2022/09/19 13:40:04;;;;;;;5.55;2.60;;;;;;;;;;5032542;28;20029;-60
2022/09/19 13:42:40;;;;;;;5.47;2.60;;;;;;;;;;5029432;28;20037;-60
2022/09/19 13:45:27;;;;;;;2.72;1.90;;;;;;;;;;5032322;28;20025;-61
2022/09/19 13:48:01;;;;;;;2.70;1.70;;;;;;;;;;5055564;28;20032;-60
2022/09/19 13:50:34;;;;;;;3.88;1.95;;;;;;;;;;5032811;28;20087;-60
2022/09/19 13:53:03;;;;;;;5.90;2.38;;;;;;;;;;5032899;28;20032;-60
2022/09/19 13:55:30;;;;;;;3.58;2.30;;;;;;;;;;5033186;28;20028;-60
2022/09/19 13:58:34;;;;;;;4.22;1.70;;;;;;;;;;5030939;28;20037;-59
2022/09/19 14:01:14;;;;;;;3.05;1.73;;;;;;;;;;5031601;28;20032;-59
2022/09/19 14:03:52;;;;;;;4.07;1.30;;;;;;;;;;5029426;28;20025;-60
2022/09/19 14:06:29;;;;;;;2.63;1.20;;;;;;;;;;5037000;28;20064;-60
2022/09/19 14:09:31;;;;;;;5.25;1.30;;;;;;;;;;5033132;28;20036;-59
2022/09/19 14:11:58;;;;;;;2.92;1.45;;;;;;;;;;5029564;28;20407;-59
2022/09/19 14:14:40;;;;;;;3.78;1.58;;;;;;;;;;5026194;28;20510;-59
2022/09/19 14:17:33;;;;;;;3.72;1.90;;;;;;;;;;5029653;28;20029;-60
2022/09/19 14:20:05;;;;;;;1.83;1.15;;;;;;;;;;5030482;28;20380;-55
2022/09/19 14:22:37;;;;;;;4.93;1.30;;;;;;;;;;5030196;28;20087;-60
2022/09/19 14:25:05;;;;;;;1.25;0.90;;;;;;;;;;5030833;28;20029;-60
2022/09/19 14:27:47;;;;;;;1.35;0.95;;;;;;;;;;5029926;28;20041;-60
2022/09/19 14:30:23;;;;;;;2.45;1.05;;;;;;;;;;5031935;28;20032;-60
2022/09/19 14:33:03;;;;;;;4.25;1.48;;;;;;;;;;5030254;28;20107;-60
2022/09/19 14:35:47;;;;;;;1.98;1.08;;;;;;;;;;5030370;28;20499;-60
2022/09/19 14:38:37;;;;;;;4.43;1.50;;;;;;;;;;5030905;28;20387;-60
2022/09/19 14:41:51;;;;;;;2.58;1.40;;;;;;;;;;5030584;28;20036;-60
2022/09/19 14:44:36;;;;;;;3.30;1.38;;;;;;;;;;5017859;28;20033;-61
2022/09/19 14:47:09;;;;;;;3.20;1.20;;;;;;;;;;5031659;28;20029;-60
2022/09/19 14:49:48;;;;;;;3.85;1.35;;;;;;;;;;5034899;28;20033;-60
2022/09/19 14:52:21;;;;;;;2.65;1.60;;;;;;;;;;5031928;28;20037;-60
2022/09/19 14:55:11;;;;;;;4.30;1.45;;;;;;;;;;5030011;28;20033;-59
2022/09/19 14:57:46;;;;;;;4.22;1.70;;;;;;;;;;5027663;28;20037;-60
2022/09/19 15:00:20;;;;;;;1.90;1.30;;;;;;;;;;5030808;28;20033;-59
2022/09/19 15:02:47;;;;;;;4.50;1.27;;;;;;;;;;5030845;28;20033;-59
2022/09/19 15:05:26;;;;;;;2.30;1.20;;;;;;;;;;5031651;28;20491;-60
2022/09/19 15:07:51;;;;;;;4.45;1.40;;;;;;;;;;5031269;28;20044;-59
2022/09/19 15:10:30;;;;;;;5.32;1.40;;;;;;;;;;5027474;28;20403;-60
2022/09/19 15:13:08;;;;;;;2.50;1.23;;;;;;;;;;5028134;28;20388;-59
2022/09/19 15:15:34;;;;;;;2.60;1.50;;;;;;;;;;5030028;28;20033;-60
2022/09/19 15:17:59;;;;;;;5.10;1.30;;;;;;;;;;5031932;28;20111;-59
2022/09/19 15:20:25;;;;;;;1.33;1.10;;;;;;;;;;5033120;28;20038;-60
2022/09/19 15:22:54;;;;;;;3.72;1.73;;;;;;;;;;5030533;28;20044;-60
2022/09/19 15:25:40;;;;;;;8.68;2.95;;;;;;;;;;5029914;28;20029;-60
2022/09/19 15:28:31;;;;;;;17.77;5.65;;;;;;;;;;5033036;28;20032;-60
2022/09/19 15:30:59;;;;;;;19.60;5.43;;;;;;;;;;5029788;28;20112;-60
2022/09/19 15:33:26;;;;;;;8.35;2.60;;;;;;;;;;5028378;28;20026;-60
2022/09/19 15:35:53;;;;;;;4.60;1.95;;;;;;;;;;5027007;28;20471;-60